sensor_id;sensor_type;location;lat;lon;timestamp;pressure;altitude;pressure_sealevel;temperature;humidity
51123;BME280;37162;41.724;13.346;2023-03-01T00:00:40;96211.81;;;16.20;62.79
51123;BME280;37162;41.724;13.346;2023-03-01T00:03:06;96208.25;;;16.15;62.73
51123;BME280;37162;41.724;13.346;2023-03-01T00:05:31;96170.53;;;15.88;62.73
51123;BME280;37162;41.724;13.346;2023-03-01T00:07:57;96230.59;;;16.20;62.70
51123;BME280;37162;41.724;13.346;2023-03-01T00:10:23;96227.91;;;16.20;62.65
51123;BME280;37162;41.724;13.346;2023-03-01T00:12:48;96222.78;;;16.19;62.66
51123;BME280;37162;41.724;13.346;2023-03-01T00:15:14;96235.13;;;16.20;62.62
51123;BME280;37162;41.724;13.346;2023-03-01T00:17:39;96222.78;;;16.19;62.58
51123;BME280;37162;41.724;13.346;2023-03-01T00:20:05;96220.13;;;16.19;62.65
51123;BME280;37162;41.724;13.346;2023-03-01T00:22:36;96219.28;;;16.18;62.61
51123;BME280;37162;41.724;13.346;2023-03-01T00:25:01;96205.78;;;16.13;62.38
51123;BME280;37162;41.724;13.346;2023-03-01T00:27:26;96207.75;;;16.18;62.39
51123;BME280;37162;41.724;13.346;2023-03-01T00:29:52;96199.97;;;16.16;62.54
51123;BME280;37162;41.724;13.346;2023-03-01T00:32:17;96199.16;;;16.16;62.39
51123;BME280;37162;41.724;13.346;2023-03-01T00:34:43;96207.19;;;16.16;62.46
51123;BME280;37162;41.724;13.346;2023-03-01T00:37:19;96210.94;;;16.15;62.33
51123;BME280;37162;41.724;13.346;2023-03-01T00:39:46;96210.94;;;16.15;62.34
51123;BME280;37162;41.724;13.346;2023-03-01T00:42:11;96216.28;;;16.15;62.67
51123;BME280;37162;41.724;13.346;2023-03-01T00:44:37;96218.97;;;16.15;62.77
51123;BME280;37162;41.724;13.346;2023-03-01T00:47:02;96221.66;;;16.15;62.71
51123;BME280;37162;41.724;13.346;2023-03-01T00:49:28;96230.50;;;16.15;62.97
51123;BME280;37162;41.724;13.346;2023-03-01T00:51:53;96231.56;;;16.14;63.09
51123;BME280;37162;41.724;13.346;2023-03-01T00:54:19;96229.69;;;16.15;63.13
51123;BME280;37162;41.724;13.346;2023-03-01T00:56:44;96223.53;;;16.14;63.15
51123;BME280;37162;41.724;13.346;2023-03-01T00:59:09;96216.50;;;16.13;62.96
51123;BME280;37162;41.724;13.346;2023-03-01T01:01:35;96214.63;;;16.14;63.03
51123;BME280;37162;41.724;13.346;2023-03-01T01:04:06;96207.66;;;16.13;62.85
51123;BME280;37162;41.724;13.346;2023-03-01T01:06:34;96202.09;;;16.14;62.77
51123;BME280;37162;41.724;13.346;2023-03-01T01:09:01;96186.38;;;16.06;62.68
51123;BME280;37162;41.724;13.346;2023-03-01T01:11:28;96195.06;;;16.13;62.62
51123;BME280;37162;41.724;13.346;2023-03-01T01:13:54;96190.78;;;16.12;62.76
51123;BME280;37162;41.724;13.346;2023-03-01T01:16:21;96192.38;;;16.13;62.57
51123;BME280;37162;41.724;13.346;2023-03-01T01:18:47;96189.72;;;16.13;62.83
51123;BME280;37162;41.724;13.346;2023-03-01T01:21:16;96194.25;;;16.13;62.60
51123;BME280;37162;41.724;13.346;2023-03-01T01:23:44;96187.53;;;16.10;62.57
51123;BME280;37162;41.724;13.346;2023-03-01T01:26:21;96181.69;;;16.13;62.56
51123;BME280;37162;41.724;13.346;2023-03-01T01:28:47;96184.34;;;16.13;62.63
51123;BME280;37162;41.724;13.346;2023-03-01T01:31:13;96186.22;;;16.13;62.72
51123;BME280;37162;41.724;13.346;2023-03-01T01:33:39;96190.78;;;16.12;62.60
51123;BME280;37162;41.724;13.346;2023-03-01T01:36:06;96194.25;;;16.13;62.82
51123;BME280;37162;41.724;13.346;2023-03-01T01:38:32;96195.31;;;16.12;62.70
51123;BME280;37162;41.724;13.346;2023-03-01T01:40:57;96194.25;;;16.13;62.77
51123;BME280;37162;41.724;13.346;2023-03-01T01:45:50;96213.84;;;16.13;62.93
51123;BME280;37162;41.724;13.346;2023-03-01T01:48:23;96213.03;;;16.13;63.11
51123;BME280;37162;41.724;13.346;2023-03-01T01:51:00;96218.16;;;16.14;63.15
51123;BME280;37162;41.724;13.346;2023-03-01T01:53:26;96222.69;;;16.14;63.48
51123;BME280;37162;41.724;13.346;2023-03-01T01:55:56;96217.31;;;16.14;63.41
51123;BME280;37162;41.724;13.346;2023-03-01T01:58:25;96229.69;;;16.15;63.47
51123;BME280;37162;41.724;13.346;2023-03-01T02:00:53;96226.19;;;16.14;63.14
51123;BME280;37162;41.724;13.346;2023-03-01T02:03:24;96232.38;;;16.15;63.13
51123;BME280;37162;41.724;13.346;2023-03-01T02:05:58;96238.53;;;16.15;63.15
51123;BME280;37162;41.724;13.346;2023-03-01T02:08:28;96230.88;;;16.07;62.76
51123;BME280;37162;41.724;13.346;2023-03-01T02:10:56;96239.25;;;16.10;62.88
51123;BME280;37162;41.724;13.346;2023-03-01T02:13:23;96242.28;;;16.14;62.73
51123;BME280;37162;41.724;13.346;2023-03-01T02:15:48;96243.09;;;16.15;62.74
51123;BME280;37162;41.724;13.346;2023-03-01T02:18:17;96244.97;;;16.14;62.73
51123;BME280;37162;41.724;13.346;2023-03-01T02:21:16;96238.44;;;16.10;62.79
51123;BME280;37162;41.724;13.346;2023-03-01T02:23:42;96247.50;;;16.09;62.73
51123;BME280;37162;41.724;13.346;2023-03-01T02:28:45;96235.69;;;16.05;62.69
51123;BME280;37162;41.724;13.346;2023-03-01T02:31:14;96253.22;;;16.13;62.64
51123;BME280;37162;41.724;13.346;2023-03-01T02:34:00;96252.66;;;16.10;62.68
51123;BME280;37162;41.724;13.346;2023-03-01T02:36:32;96258.00;;;16.10;62.65
51123;BME280;37162;41.724;13.346;2023-03-01T02:39:02;96272.22;;;16.11;62.73
51123;BME280;37162;41.724;13.346;2023-03-01T02:41:30;96267.91;;;16.10;62.53
51123;BME280;37162;41.724;13.346;2023-03-01T02:43:57;96277.00;;;16.09;62.40
51123;BME280;37162;41.724;13.346;2023-03-01T02:46:25;96274.31;;;16.09;62.38
51123;BME280;37162;41.724;13.346;2023-03-01T02:48:53;96263.59;;;16.09;62.58
51123;BME280;37162;41.724;13.346;2023-03-01T02:51:27;96266.28;;;16.09;62.49
51123;BME280;37162;41.724;13.346;2023-03-01T02:56:49;96246.69;;;16.08;62.60
51123;BME280;37162;41.724;13.346;2023-03-01T02:59:17;96245.91;;;16.08;62.61
51123;BME280;37162;41.724;13.346;2023-03-01T03:01:43;96233.56;;;16.07;62.51
51123;BME280;37162;41.724;13.346;2023-03-01T03:04:14;96238.09;;;16.06;62.49
51123;BME280;37162;41.724;13.346;2023-03-01T03:06:44;96227.63;;;16.05;62.44
51123;BME280;37162;41.724;13.346;2023-03-01T03:09:11;96229.25;;;16.06;62.55
51123;BME280;37162;41.724;13.346;2023-03-01T03:11:37;96231.94;;;16.06;62.54
51123;BME280;37162;41.724;13.346;2023-03-01T03:14:05;96227.63;;;16.05;62.55
51123;BME280;37162;41.724;13.346;2023-03-01T03:16:31;96215.28;;;16.04;62.43
51123;BME280;37162;41.724;13.346;2023-03-01T03:18:56;96201.06;;;16.03;62.33
51123;BME280;37162;41.724;13.346;2023-03-01T03:21:31;96195.69;;;16.03;62.29
51123;BME280;37162;41.724;13.346;2023-03-01T03:23:56;96201.06;;;16.03;62.44
51123;BME280;37162;41.724;13.346;2023-03-01T03:26:22;96182.56;;;16.02;62.46
51123;BME280;37162;41.724;13.346;2023-03-01T03:28:48;96188.72;;;16.02;62.37
51123;BME280;37162;41.724;13.346;2023-03-01T03:31:13;96175.59;;;16.01;62.38
51123;BME280;37162;41.724;13.346;2023-03-01T03:33:39;96173.72;;;16.01;62.67
51123;BME280;37162;41.724;13.346;2023-03-01T03:36:04;96168.34;;;16.01;62.47
51123;BME280;37162;41.724;13.346;2023-03-01T03:38:30;96170.22;;;16.01;62.25
51123;BME280;37162;41.724;13.346;2023-03-01T03:41:01;96154.28;;;15.94;62.57
51123;BME280;37162;41.724;13.346;2023-03-01T03:43:28;96167.53;;;16.01;62.48
51123;BME280;37162;41.724;13.346;2023-03-01T03:45:54;96163.25;;;16.00;62.71
51123;BME280;37162;41.724;13.346;2023-03-01T03:48:23;96167.28;;;16.02;62.72
51123;BME280;37162;41.724;13.346;2023-03-01T03:50:50;96164.63;;;16.02;62.90
51123;BME280;37162;41.724;13.346;2023-03-01T03:53:16;96157.38;;;16.03;63.00
51123;BME280;37162;41.724;13.346;2023-03-01T03:55:42;96164.38;;;16.04;62.99
51123;BME280;37162;41.724;13.346;2023-03-01T03:58:10;96162.53;;;16.04;63.27
51123;BME280;37162;41.724;13.346;2023-03-01T04:00:38;96157.97;;;16.05;63.17
51123;BME280;37162;41.724;13.346;2023-03-01T04:03:04;96149.94;;;16.05;63.03
51123;BME280;37162;41.724;13.346;2023-03-01T04:05:30;96149.13;;;16.04;62.96
51123;BME280;37162;41.724;13.346;2023-03-01T04:07:56;96141.91;;;16.05;62.78
51123;BME280;37162;41.724;13.346;2023-03-01T04:10:46;96137.81;;;16.02;62.66
51123;BME280;37162;41.724;13.346;2023-03-01T04:13:16;96132.47;;;16.02;62.64
51123;BME280;37162;41.724;13.346;2023-03-01T04:15:42;96133.78;;;16.00;62.56
51123;BME280;37162;41.724;13.346;2023-03-01T04:18:13;96142.94;;;16.04;62.42
51123;BME280;37162;41.724;13.346;2023-03-01T04:20:38;96135.72;;;16.04;62.56
51123;BME280;37162;41.724;13.346;2023-03-01T04:23:11;96129.53;;;16.04;62.47
51123;BME280;37162;41.724;13.346;2023-03-01T04:25:56;96134.88;;;16.04;62.46
51123;BME280;37162;41.724;13.346;2023-03-01T04:28:23;96144.00;;;16.03;62.65
51123;BME280;37162;41.724;13.346;2023-03-01T04:30:50;96146.66;;;16.03;62.52
51123;BME280;37162;41.724;13.346;2023-03-01T04:33:16;96160.88;;;16.03;62.70
51123;BME280;37162;41.724;13.346;2023-03-01T04:35:41;96156.56;;;16.02;62.47
51123;BME280;37162;41.724;13.346;2023-03-01T04:38:08;96168.09;;;16.03;62.49
51123;BME280;37162;41.724;13.346;2023-03-01T04:40:33;96184.19;;;16.03;62.56
51123;BME280;37162;41.724;13.346;2023-03-01T04:42:59;96186.03;;;16.02;62.31
51123;BME280;37162;41.724;13.346;2023-03-01T04:45:25;96189.53;;;16.03;62.47
51123;BME280;37162;41.724;13.346;2023-03-01T04:47:50;96184.19;;;16.03;62.60
51123;BME280;37162;41.724;13.346;2023-03-01T04:50:18;96190.59;;;16.02;62.84
51123;BME280;37162;41.724;13.346;2023-03-01T04:52:46;96193.28;;;16.02;62.85
51123;BME280;37162;41.724;13.346;2023-03-01T04:55:12;96199.44;;;16.02;62.77
51123;BME280;37162;41.724;13.346;2023-03-01T04:57:38;96192.94;;;15.98;62.71
51123;BME280;37162;41.724;13.346;2023-03-01T05:00:05;96204.81;;;16.02;62.67
51123;BME280;37162;41.724;13.346;2023-03-01T05:02:49;96200.75;;;16.00;62.53
51123;BME280;37162;41.724;13.346;2023-03-01T05:05:19;96190.59;;;16.02;62.36
51123;BME280;37162;41.724;13.346;2023-03-01T05:07:44;96189.78;;;16.01;62.37
51123;BME280;37162;41.724;13.346;2023-03-01T05:10:10;96179.31;;;16.00;62.38
51123;BME280;37162;41.724;13.346;2023-03-01T05:12:35;96172.09;;;16.00;62.25
51123;BME280;37162;41.724;13.346;2023-03-01T05:15:03;96172.09;;;16.00;62.26
51123;BME280;37162;41.724;13.346;2023-03-01T05:17:35;96159.72;;;15.99;62.22
51123;BME280;37162;41.724;13.346;2023-03-01T05:20:00;96161.59;;;15.99;62.40
51123;BME280;37162;41.724;13.346;2023-03-01T05:22:26;96163.47;;;15.98;62.27
51123;BME280;37162;41.724;13.346;2023-03-01T05:24:52;96157.28;;;15.98;62.16
51123;BME280;37162;41.724;13.346;2023-03-01T05:27:19;96157.56;;;15.96;62.31
51123;BME280;37162;41.724;13.346;2023-03-01T05:29:47;96158.34;;;15.97;62.15
51123;BME280;37162;41.724;13.346;2023-03-01T05:32:13;96147.91;;;15.95;62.51
51123;BME280;37162;41.724;13.346;2023-03-01T05:34:41;96152.41;;;15.95;62.29
51123;BME280;37162;41.724;13.346;2023-03-01T05:37:07;96146.97;;;15.90;62.26
51123;BME280;37162;41.724;13.346;2023-03-01T05:39:33;96159.63;;;15.94;62.38
51123;BME280;37162;41.724;13.346;2023-03-01T05:42:00;96163.97;;;15.95;62.43
51123;BME280;37162;41.724;13.346;2023-03-01T05:44:27;96163.38;;;15.93;62.48
51123;BME280;37162;41.724;13.346;2023-03-01T05:46:54;96165.59;;;15.96;62.48
51123;BME280;37162;41.724;13.346;2023-03-01T05:49:20;96167.47;;;15.96;62.72
51123;BME280;37162;41.724;13.346;2023-03-01T05:51:50;96169.06;;;15.97;62.74
51123;BME280;37162;41.724;13.346;2023-03-01T05:54:17;96160.44;;;15.95;62.84
51123;BME280;37162;41.724;13.346;2023-03-01T05:56:42;96160.22;;;15.96;62.68
51123;BME280;37162;41.724;13.346;2023-03-01T05:59:08;96164.78;;;15.96;62.80
51123;BME280;37162;41.724;13.346;2023-03-01T06:01:34;96169.31;;;15.95;62.84
51123;BME280;37162;41.724;13.346;2023-03-01T06:04:00;96168.25;;;15.96;62.64
51123;BME280;37162;41.724;13.346;2023-03-01T06:06:25;96157.56;;;15.96;62.44
51123;BME280;37162;41.724;13.346;2023-03-01T06:08:51;96148.63;;;15.91;62.42
51123;BME280;37162;41.724;13.346;2023-03-01T06:11:17;96156.75;;;15.96;62.29
51123;BME280;37162;41.724;13.346;2023-03-01T06:13:43;96147.06;;;15.95;62.33
51123;BME280;37162;41.724;13.346;2023-03-01T06:16:09;96144.53;;;15.88;62.40
51123;BME280;37162;41.724;13.346;2023-03-01T06:18:35;96149.66;;;15.90;62.28
51123;BME280;37162;41.724;13.346;2023-03-01T06:21:01;96161.28;;;15.95;62.30
51123;BME280;37162;41.724;13.346;2023-03-01T06:23:26;96164.78;;;15.96;62.28
51123;BME280;37162;41.724;13.346;2023-03-01T06:25:52;96163.13;;;15.95;62.37
51123;BME280;37162;41.724;13.346;2023-03-01T06:28:17;96161.75;;;15.92;62.37
51123;BME280;37162;41.724;13.346;2023-03-01T06:30:43;96170.94;;;15.96;62.25
51123;BME280;37162;41.724;13.346;2023-03-01T06:33:08;96174.44;;;15.97;62.43
51123;BME280;37162;41.724;13.346;2023-03-01T06:35:34;96156.31;;;15.87;62.44
51123;BME280;37162;41.724;13.346;2023-03-01T06:38:00;96178.72;;;15.98;62.17
51123;BME280;37162;41.724;13.346;2023-03-01T06:40:27;96172.56;;;15.97;62.33
51123;BME280;37162;41.724;13.346;2023-03-01T06:42:52;96170.69;;;15.98;62.22
51123;BME280;37162;41.724;13.346;2023-03-01T06:45:19;96173.38;;;15.98;62.22
51123;BME280;37162;41.724;13.346;2023-03-01T06:47:45;96174.19;;;15.98;62.24
51123;BME280;37162;41.724;13.346;2023-03-01T06:50:11;96174.19;;;15.98;62.20
51123;BME280;37162;41.724;13.346;2023-03-01T06:52:37;96169.63;;;15.99;62.29
51123;BME280;37162;41.724;13.346;2023-03-01T06:55:03;96160.69;;;15.93;62.52
51123;BME280;37162;41.724;13.346;2023-03-01T06:57:29;96173.72;;;16.01;62.46
51123;BME280;37162;41.724;13.346;2023-03-01T06:59:54;96183.38;;;16.02;62.31
51123;BME280;37162;41.724;13.346;2023-03-01T07:02:20;96172.31;;;15.99;62.21
51123;BME280;37162;41.724;13.346;2023-03-01T07:04:45;96187.66;;;16.03;62.28
51123;BME280;37162;41.724;13.346;2023-03-01T07:07:11;96190.34;;;16.03;61.97
51123;BME280;37162;41.724;13.346;2023-03-01T07:09:37;96188.47;;;16.04;62.06
51123;BME280;37162;41.724;13.346;2023-03-01T07:12:02;96198.16;;;16.05;61.81
51123;BME280;37162;41.724;13.346;2023-03-01T07:14:28;96201.88;;;16.04;61.98
51123;BME280;37162;41.724;13.346;2023-03-01T07:16:54;96190.34;;;16.03;61.93
51123;BME280;37162;41.724;13.346;2023-03-01T07:19:20;96188.09;;;15.95;62.15
51123;BME280;37162;41.724;13.346;2023-03-01T07:21:46;96202.94;;;16.03;61.85
51123;BME280;37162;41.724;13.346;2023-03-01T07:24:11;96204.00;;;16.02;61.97
51123;BME280;37162;41.724;13.346;2023-03-01T07:26:37;96206.69;;;16.02;61.94
51123;BME280;37162;41.724;13.346;2023-03-01T07:29:05;96204.25;;;16.00;62.00
51123;BME280;37162;41.724;13.346;2023-03-01T07:31:31;96204.25;;;16.00;62.04
51123;BME280;37162;41.724;13.346;2023-03-01T07:33:56;96197.00;;;16.01;62.10
51123;BME280;37162;41.724;13.346;2023-03-01T07:36:23;96203.19;;;16.01;62.08
51123;BME280;37162;41.724;13.346;2023-03-01T07:38:48;96204.25;;;16.00;62.24
51123;BME280;37162;41.724;13.346;2023-03-01T07:41:14;96201.56;;;16.00;61.88
51123;BME280;37162;41.724;13.346;2023-03-01T07:43:39;96202.38;;;16.01;62.32
51123;BME280;37162;41.724;13.346;2023-03-01T07:46:05;96206.69;;;16.02;62.28
51123;BME280;37162;41.724;13.346;2023-03-01T07:48:32;96197.72;;;15.96;62.21
51123;BME280;37162;41.724;13.346;2023-03-01T07:51:03;96205.88;;;16.01;62.24
51123;BME280;37162;41.724;13.346;2023-03-01T07:53:30;96211.22;;;16.01;62.15
51123;BME280;37162;41.724;13.346;2023-03-01T07:58:27;96213.91;;;16.01;62.17
51123;BME280;37162;41.724;13.346;2023-03-01T08:00:53;96220.06;;;16.02;62.21
51123;BME280;37162;41.724;13.346;2023-03-01T08:03:18;96218.19;;;16.02;62.23
51123;BME280;37162;41.724;13.346;2023-03-01T08:05:43;96215.78;;;16.01;62.40
51123;BME280;37162;41.724;13.346;2023-03-01T08:08:09;96221.13;;;16.01;62.26
51123;BME280;37162;41.724;13.346;2023-03-01T08:10:36;96218.44;;;16.01;62.18
51123;BME280;37162;41.724;13.346;2023-03-01T08:13:01;96219.50;;;16.00;62.08
51123;BME280;37162;41.724;13.346;2023-03-01T08:15:26;96220.31;;;16.00;62.10
51123;BME280;37162;41.724;13.346;2023-03-01T08:17:52;96226.50;;;16.01;62.21
51123;BME280;37162;41.724;13.346;2023-03-01T08:20:17;96212.19;;;15.95;62.52
51123;BME280;37162;41.724;13.346;2023-03-01T08:22:43;96225.44;;;16.02;62.21
51123;BME280;37162;41.724;13.346;2023-03-01T08:25:08;96224.97;;;16.05;62.57
51123;BME280;37162;41.724;13.346;2023-03-01T08:27:34;96226.81;;;16.04;62.58
51123;BME280;37162;41.724;13.346;2023-03-01T08:29:59;96224.16;;;16.04;62.70
51123;BME280;37162;41.724;13.346;2023-03-01T08:32:25;96217.06;;;15.98;62.50
51123;BME280;37162;41.724;13.346;2023-03-01T08:34:50;96230.31;;;16.05;62.40
51123;BME280;37162;41.724;13.346;2023-03-01T08:37:15;96220.63;;;16.04;62.17
51123;BME280;37162;41.724;13.346;2023-03-01T08:39:41;96226.00;;;16.04;62.19
51123;BME280;37162;41.724;13.346;2023-03-01T08:42:06;96227.63;;;16.05;62.05
51123;BME280;37162;41.724;13.346;2023-03-01T08:44:31;96222.84;;;16.07;62.26
51123;BME280;37162;41.724;13.346;2023-03-01T08:46:57;96220.97;;;16.07;62.16
51123;BME280;37162;41.724;13.346;2023-03-01T08:49:23;96222.59;;;16.08;62.27
51123;BME280;37162;41.724;13.346;2023-03-01T08:51:48;96230.41;;;16.10;62.08
51123;BME280;37162;41.724;13.346;2023-03-01T08:54:19;96231.22;;;16.10;61.93
51123;BME280;37162;41.724;13.346;2023-03-01T08:56:45;96232.84;;;16.12;61.98
51123;BME280;37162;41.724;13.346;2023-03-01T08:59:12;96237.38;;;16.11;61.93
51123;BME280;37162;41.724;13.346;2023-03-01T09:01:38;96241.44;;;16.14;61.84
51123;BME280;37162;41.724;13.346;2023-03-01T09:05:19;96240.16;;;16.16;60.41
51123;BME280;37162;41.724;13.346;2023-03-01T09:07:45;96244.25;;;16.19;59.44
51123;BME280;37162;41.724;13.346;2023-03-01T09:10:10;96239.47;;;16.09;58.31
51123;BME280;37162;41.724;13.346;2023-03-01T09:12:36;96251.03;;;16.09;57.92
51123;BME280;37162;41.724;13.346;2023-03-01T09:15:01;96242.06;;;16.04;57.94
51123;BME280;37162;41.724;13.346;2023-03-01T09:17:27;96238.38;;;15.93;57.43
51123;BME280;37162;41.724;13.346;2023-03-01T09:19:52;96247.81;;;15.96;57.25
51123;BME280;37162;41.724;13.346;2023-03-01T09:22:19;96247.72;;;15.91;57.43
51123;BME280;37162;41.724;13.346;2023-03-01T09:24:44;96249.34;;;15.92;57.95
51123;BME280;37162;41.724;13.346;2023-03-01T09:27:10;96246.69;;;15.92;58.12
51123;BME280;37162;41.724;13.346;2023-03-01T09:29:36;96252.25;;;15.90;58.17
51123;BME280;37162;41.724;13.346;2023-03-01T09:32:02;96256.59;;;15.91;58.56
51123;BME280;37162;41.724;13.346;2023-03-01T09:34:28;96255.53;;;15.92;58.56
51123;BME280;37162;41.724;13.346;2023-03-01T09:36:53;96253.09;;;15.91;58.79
51123;BME280;37162;41.724;13.346;2023-03-01T09:39:19;96246.78;;;15.85;58.91
51123;BME280;37162;41.724;13.346;2023-03-01T09:44:31;96253.66;;;15.93;59.18
51123;BME280;37162;41.724;13.346;2023-03-01T09:46:59;96249.56;;;15.90;59.29
51123;BME280;37162;41.724;13.346;2023-03-01T09:49:35;96239.81;;;15.84;59.31
51123;BME280;37162;41.724;13.346;2023-03-01T09:54:47;96243.75;;;15.93;59.61
51123;BME280;37162;41.724;13.346;2023-03-01T09:57:26;96253.41;;;15.94;59.96
51123;BME280;37162;41.724;13.346;2023-03-01T10:02:38;96260.25;;;16.02;59.98
51123;BME280;37162;41.724;13.346;2023-03-01T10:10:39;96245.91;;;16.08;60.31
51123;BME280;37162;41.724;13.346;2023-03-01T10:13:16;96250.88;;;16.16;60.25
51123;BME280;37162;41.724;13.346;2023-03-01T10:15:57;96253.66;;;16.21;60.14
51123;BME280;37162;41.724;13.346;2023-03-01T10:18:30;96256.41;;;16.26;59.78
51123;BME280;37162;41.724;13.346;2023-03-01T10:21:15;96251.16;;;16.31;59.76
51123;BME280;37162;41.724;13.346;2023-03-01T10:23:42;96249.38;;;16.37;60.08
51123;BME280;37162;41.724;13.346;2023-03-01T10:28:58;96250.94;;;16.50;60.09
51123;BME280;37162;41.724;13.346;2023-03-01T10:34:04;96237.22;;;16.63;59.96
51123;BME280;37162;41.724;13.346;2023-03-01T10:36:33;96238.91;;;16.69;59.88
51123;BME280;37162;41.724;13.346;2023-03-01T10:38:59;96240.66;;;16.75;59.72
51123;BME280;37162;41.724;13.346;2023-03-01T10:41:26;96235.38;;;16.80;60.01
51123;BME280;37162;41.724;13.346;2023-03-01T10:43:57;96228.22;;;16.86;59.82
51123;BME280;37162;41.724;13.346;2023-03-01T10:46:30;96234.22;;;16.93;60.04
51123;BME280;37162;41.724;13.346;2023-03-01T10:49:15;96232.44;;;16.99;60.15
51123;BME280;37162;41.724;13.346;2023-03-01T10:51:43;96225.19;;;16.99;59.88
51123;BME280;37162;41.724;13.346;2023-03-01T10:54:28;96237.38;;;17.07;59.77
51123;BME280;37162;41.724;13.346;2023-03-01T10:56:56;96221.78;;;17.04;59.70
51123;BME280;37162;41.724;13.346;2023-03-01T10:59:29;96232.81;;;17.07;59.35
51123;BME280;37162;41.724;13.346;2023-03-01T11:02:23;96233.88;;;17.06;59.44
51123;BME280;37162;41.724;13.346;2023-03-01T11:04:58;96220.38;;;17.01;59.22
51123;BME280;37162;41.724;13.346;2023-03-01T11:07:24;96224.41;;;16.99;59.08
51123;BME280;37162;41.724;13.346;2023-03-01T11:09:49;96227.88;;;16.99;58.95
51123;BME280;37162;41.724;13.346;2023-03-01T11:12:16;96226.56;;;17.02;59.02
51123;BME280;37162;41.724;13.346;2023-03-01T11:14:51;96216.41;;;17.04;59.08
51123;BME280;37162;41.724;13.346;2023-03-01T11:17:24;96212.19;;;17.08;59.08
51123;BME280;37162;41.724;13.346;2023-03-01T11:20:09;96206.31;;;17.11;59.02
51123;BME280;37162;41.724;13.346;2023-03-01T11:22:47;96197.44;;;17.10;58.95
51123;BME280;37162;41.724;13.346;2023-03-01T11:25:15;96203.69;;;17.16;58.98
51123;BME280;37162;41.724;13.346;2023-03-01T11:27:44;96199.38;;;17.15;58.63
51123;BME280;37162;41.724;13.346;2023-03-01T11:30:24;96197.75;;;17.14;58.85
51123;BME280;37162;41.724;13.346;2023-03-01T11:36:07;96192.00;;;17.05;57.83
51123;BME280;37162;41.724;13.346;2023-03-01T11:38:34;96191.69;;;17.02;57.66
51123;BME280;37162;41.724;13.346;2023-03-01T11:41:25;96194.38;;;17.02;57.80
51123;BME280;37162;41.724;13.346;2023-03-01T11:44:01;96191.44;;;17.03;57.83
51123;BME280;37162;41.724;13.346;2023-03-01T12:22:29;96144.47;;;17.23;58.72
51123;BME280;37162;41.724;13.346;2023-03-01T12:25:11;96137.75;;;17.25;58.43
51123;BME280;37162;41.724;13.346;2023-03-01T12:38:59;96131.91;;;17.28;58.44
51123;BME280;37162;41.724;13.346;2023-03-01T12:52:39;96132.22;;;17.10;58.71
51123;BME280;37162;41.724;13.346;2023-03-01T12:57:59;96123.53;;;17.03;58.78
51123;BME280;37162;41.724;13.346;2023-03-01T13:00:49;96130.47;;;16.99;59.23
51123;BME280;37162;41.724;13.346;2023-03-01T13:03:46;96128.75;;;16.93;59.39
51123;BME280;37162;41.724;13.346;2023-03-01T13:11:55;96136.34;;;16.79;59.96
51123;BME280;37162;41.724;13.346;2023-03-01T13:16:47;96139.78;;;16.74;60.34
51123;BME280;37162;41.724;13.346;2023-03-01T13:21:46;96147.72;;;16.69;60.79
51123;BME280;37162;41.724;13.346;2023-03-01T13:24:33;96134.81;;;16.66;60.85
51123;BME280;37162;41.724;13.346;2023-03-01T13:29:54;96140.91;;;16.61;60.98
51123;BME280;37162;41.724;13.346;2023-03-01T13:32:29;96150.50;;;16.57;61.06
51123;BME280;37162;41.724;13.346;2023-03-01T13:37:51;96138.31;;;16.50;60.82
51123;BME280;37162;41.724;13.346;2023-03-01T13:42:50;96135.88;;;16.48;60.68
51123;BME280;37162;41.724;13.346;2023-03-01T13:45:38;96141.50;;;16.47;60.62
51123;BME280;37162;41.724;13.346;2023-03-01T13:48:09;96141.41;;;16.42;61.01
51123;BME280;37162;41.724;13.346;2023-03-01T13:50:43;96142.13;;;16.37;60.79
51123;BME280;37162;41.724;13.346;2023-03-01T13:53:16;96148.88;;;16.40;60.94
51123;BME280;37162;41.724;13.346;2023-03-01T13:55:45;96151.00;;;16.38;60.78
51123;BME280;37162;41.724;13.346;2023-03-01T14:00:59;96148.81;;;16.34;61.22
51123;BME280;37162;41.724;13.346;2023-03-01T14:03:25;96155.22;;;16.33;61.13
51123;BME280;37162;41.724;13.346;2023-03-01T14:06:12;96144.44;;;16.28;61.17
51123;BME280;37162;41.724;13.346;2023-03-01T14:08:38;96145.16;;;16.24;61.17
51123;BME280;37162;41.724;13.346;2023-03-01T14:19:28;96151.06;;;16.26;62.05
51123;BME280;37162;41.724;13.346;2023-03-01T14:24:29;96146.53;;;16.26;62.32
51123;BME280;37162;41.724;13.346;2023-03-01T14:26:58;96149.78;;;16.28;62.28
51123;BME280;37162;41.724;13.346;2023-03-01T14:29:35;96140.94;;;16.28;62.17
51123;BME280;37162;41.724;13.346;2023-03-01T14:32:20;96147.09;;;16.28;61.98
51123;BME280;37162;41.724;13.346;2023-03-01T14:34:47;96135.56;;;16.28;61.93
51123;BME280;37162;41.724;13.346;2023-03-01T14:39:41;96129.38;;;16.27;61.92
51123;BME280;37162;41.724;13.346;2023-03-01T14:42:06;96132.31;;;16.26;61.94
51123;BME280;37162;41.724;13.346;2023-03-01T14:44:35;96117.78;;;16.22;62.02
51123;BME280;37162;41.724;13.346;2023-03-01T14:47:03;96117.84;;;16.27;62.01
51123;BME280;37162;41.724;13.346;2023-03-01T14:49:30;96105.69;;;16.19;61.85
51123;BME280;37162;41.724;13.346;2023-03-01T14:52:02;96125.09;;;16.26;61.99
51123;BME280;37162;41.724;13.346;2023-03-01T14:57:03;96115.81;;;16.17;62.07
51123;BME280;37162;41.724;13.346;2023-03-01T14:59:29;96122.06;;;16.23;61.96
51123;BME280;37162;41.724;13.346;2023-03-01T15:01:57;96113.22;;;16.22;62.04
51123;BME280;37162;41.724;13.346;2023-03-01T15:04:24;96117.53;;;16.23;62.00
51123;BME280;37162;41.724;13.346;2023-03-01T15:06:52;96114.88;;;16.23;61.86
51123;BME280;37162;41.724;13.346;2023-03-01T15:09:19;96122.91;;;16.23;61.88